Terminal Aerodrome Forecast
Issued by NWS Boston, MA

Home | Current Version | Previous Version | Text Only | Print | Product List | Glossary On
Versions: 1 2 3 4 5 6 7 8 9 10 11 12 13 14 15 16 17 18 19 20 21 22 23 24 25 26 27 28 29 30 31 32 33 34 35 36 37 38 39 40 41 42 43 44 45 46
000
FTUS41 KBOX 252128 AAA
TAFBOS
TAF AMD
KBOS 252128Z 2521/2624 24011G18KT P6SM BKN060
     FM260600 27007KT P6SM OVC070
     FM260900 31007KT P6SM OVC070
     FM261200 33005KT 5SM -RA OVC040
     FM261500 01008KT 4SM -RASN OVC015
     FM261600 02015KT 1SM -SN OVC008
     FM262100 02016G25KT 3SM -SNRA OVC008
     FM262300 02018G31KT 5SM -SNRA OVC008=

USA.gov is the U.S. government's official web portal to all federal, state and local government web resources and services.